Ogden Hinckley Airport
KOGD : now visible

Airfield :











YOU CAN JOIN US ON...

 
LOGIN :

Register | Disclaimer

   EN    FR    IT 

 









Legend :    VFR   Marginal VFR   IFR   Intensive IFR   Very Intensive IFR
Visi :
Ceiling :
>= 8 km
>= 3000ft
5 to 8 km
1000 to 3000 ft
1500m to 5 km
500 to 1000 ft
800 to 1500m
200 to 500 ft
< 800m
< 200 ft
Symbols :   Thunderstorms  Fog  Heavy snow  Heavy precipitations  Wind > 20 kt






- Airport Elevation : 4473 ft


KOGD - Ogden Hinckley

CURRENT METAR :
  • 280253Z 32003KT 10SM CLR 23/00 A3010 RMK AO2 SLP145 T02280000 56004

EXPIRED METARs :
  • 280153Z 33004KT 10SM CLR 26/M02 A3010 RMK AO2 SLP144 T02561022
  • 280053Z 33006KT 10SM CLR 26/M01 A3010 RMK AO2 SLP146 T02611006
  • 272353Z 35007KT 10SM CLR 27/M01 A3011 RMK AO2 SLP152 T02671006 10272 20233 58010
  • 272253Z 10SM CLR 26/M01 A3013 RMK AO2 SLP158 T02611006

TAF KOGD
Valid from the 28 at 00:00 until the 29 at 00:00 UTC


272320Z 2800/2824 33006KT P6SM SKC
FM280400 17006KT P6SM FEW150 FEW250
FM281800 24007KT P6SM SCT120 SCT250
KZLC FIR / North America



MET'MAP, your aeronautical weather chart ! - Copyright ORBIFLY December 2007 - Disclaimer

ORBIFLY MET'MAP TEAM :

Programming & Development : Alexandra Zaïnal
Original concept : Baudouin d'Aumeries
Technical & hardware support : Manuel Goepfert
Assistance : Marc-Olivier Méhu




SOURCES & CREDITS :

   NOAA       Earth
Advisory